Flight Track Log - Related Links

Times and Time Zones

All times are in EDT time to prevent confusion due to time zone crossing. See the TAM3377 flight status page for this flight to view local times or setup timezone preferences in your user account.

Time Position Orientation Groundspeed Altitude Reporting Facility
EDT Latitude Longitude Course Direction KTS MPH feet Rate Location/Type
Tue 11:26:21 AM -20.2687 -40.2940 212° Southwest 168 193 100  Level FlightAware ADS-B
Tue 11:26:39 AM -20.2791 -40.3003 204° Southwest 170 196 900 2,000 Climbing FlightAware ADS-B
Tue 11:26:54 AM -20.2922 -40.3050 194° South 191 220 1,200 1,091 Climbing FlightAware ADS-B
Tue 11:27:23 AM -20.3221 -40.3118 192° South 243 280 1,700 1,227 Climbing FlightAware ADS-B
Tue 11:27:38 AM -20.3388 -40.3158 191° South 263 303 2,100 2,471 Climbing FlightAware ADS-B
Tue 11:27:57 AM -20.3605 -40.3137 159° South 273 314 3,100 3,529 Climbing FlightAware ADS-B
Tue 11:28:12 AM -20.3769 -40.3013 132° Southeast 269 310 4,100 3,600 Climbing FlightAware ADS-B
Tue 11:28:27 AM -20.3886 -40.2855 126° Southeast 271 312 4,900 3,400 Climbing FlightAware ADS-B
Tue 11:28:42 AM -20.3999 -40.2696 129° Southeast 277 319 5,800 3,500 Climbing FlightAware ADS-B
Tue 11:29:15 AM -20.4295 -40.2390 142° Southeast 283 326 7,700 3,194 Climbing FlightAware ADS-B
Tue 11:29:44 AM -20.4629 -40.2135 146° Southeast 297 342 9,100 3,000 Climbing FlightAware ADS-B
Tue 11:30:15 AM -20.4989 -40.1882 146° Southeast 299 344 10,700 1,846 Climbing FlightAware ADS-B
Tue 11:31:02 AM -20.5633 -40.1709 197° South 358 412 11,500 1,161 Climbing FlightAware ADS-B
Tue 11:31:17 AM -20.5884 -40.1850 219° Southwest 368 423 11,900 2,087 Climbing FlightAware ADS-B
Tue 11:31:48 AM -20.6218 -40.2240 229° Southwest 375 432 13,100 2,338 Climbing FlightAware ADS-B
Tue 11:32:34 AM -20.6743 -40.2924 235° Southwest 385 443 14,900 2,348 Climbing FlightAware ADS-B
Tue 11:33:20 AM -20.7174 -40.3582 235° Southwest 394 453 16,700 2,387 Climbing FlightAware ADS-B
Tue 11:34:07 AM -20.7723 -40.4415 235° Southwest 398 458 18,600 2,087 Climbing FlightAware ADS-B
Tue 11:34:52 AM -20.8188 -40.5124 235° Southwest 412 474 19,900 1,769 Climbing FlightAware ADS-B
Tue 11:35:25 AM -20.8565 -40.5703 235° Southwest 419 482 20,900 1,688 Climbing FlightAware ADS-B
Tue 11:36:28 AM -20.9274 -40.6791 235° Southwest 432 497 22,600 1,556 Climbing FlightAware ADS-B
Tue 11:37:13 AM -20.9762 -40.7541 235° Southwest 441 507 23,700 1,520 Climbing FlightAware ADS-B
Tue 11:37:43 AM -21.0111 -40.8080 235° Southwest 442 509 24,500 1,967 Climbing FlightAware ADS-B
Tue 11:38:14 AM -21.0424 -40.8563 236° Southwest 436 502 25,700 2,432 Climbing FlightAware ADS-B
Tue 11:38:57 AM -21.0959 -40.9388 235° Southwest 421 484 27,500 1,769 Climbing FlightAware ADS-B
Tue 11:39:32 AM -21.1373 -41.0031 236° Southwest 422 486 28,000 283 Climbing FlightAware ADS-B
Tue 11:40:43 AM -21.2171 -41.1266 235° Southwest 423 487 28,000  Level FlightAware ADS-B
Tue 11:41:19 AM -21.2568 -41.1881 236° Southwest 424 488 28,000  Level FlightAware ADS-B
Tue 11:41:59 AM -21.2622 -41.1964 236° Southwest 421 484 28,000  Level FlightAware ADS-B
Tue 11:42:53 AM -21.3600 -41.3481 236° Southwest 422 486 28,000  Level FlightAware ADS-B (SBGL / GIG)
Tue 11:43:02 AM -21.3600 -41.3481 236° Southwest 422 486 28,000  Level FlightAware ADS-B (SBRJ / SDU)
Tue 11:43:12 AM -21.3786 -41.3772 236° Southwest 422 486 28,000  Level FlightAware ADS-B (SBGL / GIG)
Tue 11:43:55 AM -21.4276 -41.4537 236° Southwest 424 488 28,000  Level FlightAware ADS-B
Tue 11:44:08 AM -21.4426 -41.4771 236° Southwest 423 487 28,000  Level FlightAware ADS-B (SBGL / GIG)
Tue 11:44:27 AM -21.4460 -41.4823 236° Southwest 424 488 28,000  Level FlightAware ADS-B (SBRJ / SDU)
Tue 11:44:29 AM -21.4601 -41.5046 236° Southwest 423 487 28,000  Level FlightAware ADS-B (SBGL / GIG)
Tue 11:45:07 AM -21.4907 -41.5524 236° Southwest 424 488 28,000  Level FlightAware ADS-B (SBRJ / SDU)
Tue 11:46:00 AM -21.5677 -41.6725 236° Southwest 423 487 28,000  Level FlightAware ADS-B (SBGL / GIG)
Tue 11:46:09 AM -21.5786 -41.6892 236° Southwest 441 507 28,000  Level FlightAware ADS-B
Tue 11:46:40 AM -21.6151 -41.7467 236° Southwest 462 532 28,000  Level FlightAware ADS-B
Tue 11:47:25 AM -21.6514 -41.8034 236° Southwest 469 540 28,000  Level FlightAware ADS-B (SBRJ / SDU)
Tue 11:47:57 AM -21.7106 -41.8961 236° Southwest 467 537 28,000  Level FlightAware ADS-B (SBGL / GIG)
Tue 11:48:06 AM -21.7020 -41.8827 236° Southwest 468 539 28,000  Level FlightAware ADS-B (SBRJ / SDU)
Tue 11:48:27 AM -21.7460 -41.9516 236° Southwest 467 537 28,000  Level FlightAware ADS-B (SBGL / GIG)
Tue 11:48:46 AM -21.7502 -41.9581 236° Southwest 467 537 28,000  Level FlightAware ADS-B (SBRJ / SDU)
Tue 11:48:57 AM -21.7831 -42.0100 236° Southwest 465 535 28,000  Level FlightAware ADS-B (SBGL / GIG)
Tue 11:49:26 AM -21.8017 -42.0397 236° Southwest 465 535 28,000  Level FlightAware ADS-B (SBRJ / SDU)
Tue 11:49:27 AM -21.8193 -42.0674 236° Southwest 465 535 28,000  Level FlightAware ADS-B (SBGL / GIG)
Tue 11:49:57 AM -21.8557 -42.1249 238° Southwest 466 536 28,000  Level FlightAware ADS-B (SBGL / GIG)
Tue 11:50:07 AM -21.8597 -42.1320 237° Southwest 467 537 28,000  Level FlightAware ADS-B (SBRJ / SDU)
Tue 11:50:46 AM -21.9035 -42.2267 246° West 464 534 28,000  Level FlightAware ADS-B (SBGL / GIG)
Tue 11:50:47 AM -21.9045 -42.2287 245° Southwest 467 537 28,000  Level FlightAware ADS-B (SBGL / GIG)
Tue 11:51:17 AM -21.9315 -42.2909 245° Southwest 466 536 28,000  Level FlightAware ADS-B (SBGL / GIG)
Tue 11:51:24 AM -21.9272 -42.2808 245° Southwest 467 537 28,000  Level FlightAware ADS-B (SBRJ / SDU)
Tue 11:51:47 AM -21.9594 -42.3544 245° Southwest 467 537 28,000  Level FlightAware ADS-B (SBGL / GIG)
Tue 11:52:04 AM -21.9612 -42.3584 245° Southwest 466 536 28,000  Level FlightAware ADS-B (SBRJ / SDU)
Tue 11:52:17 AM -21.9872 -42.4177 245° Southwest 467 537 28,000  Level FlightAware ADS-B (SBGL / GIG)
Tue 11:52:45 AM -22.0135 -42.4782 245° Southwest 468 539 28,000  Level FlightAware ADS-B (SBGL / GIG)
Tue 11:52:47 AM -22.0143 -42.4804 245° Southwest 467 537 28,000  Level FlightAware ADS-B (SBGL / GIG)
Tue 11:53:17 AM -22.0420 -42.5445 246° West 469 540 28,000  Level FlightAware ADS-B (SBGL / GIG)
Tue 11:53:26 AM -22.0507 -42.5645 245° Southwest 470 541 28,000  Level FlightAware ADS-B (SBGL / GIG)
Tue 11:53:47 AM -22.0694 -42.6076 246° West 468 539 28,000  Level FlightAware ADS-B (SBGL / GIG)
Tue 11:54:05 AM -22.0752 -42.6209 245° Southwest 469 540 28,000  Level FlightAware ADS-B (SBRJ / SDU)
Tue 11:54:17 AM -22.0969 -42.6708 246° West 467 537 28,000  Level FlightAware ADS-B (SBGL / GIG)
Tue 11:54:46 AM -22.1129 -42.7081 245° Southwest 465 535 28,000  Level FlightAware ADS-B (SBRJ / SDU)
Tue 11:54:47 AM -22.1239 -42.7339 246° West 465 535 28,000  Level FlightAware ADS-B (SBGL / GIG)
Tue 11:55:17 AM -22.1512 -42.7967 246° West 463 533 28,000  Level FlightAware ADS-B (SBGL / GIG)
Tue 11:55:18 AM -22.1420 -42.7752 245° Southwest 464 534 28,000  Level FlightAware ADS-B (SBRJ / SDU)
Tue 11:55:47 AM -22.1784 -42.8597 246° West 463 533 28,000  Level FlightAware ADS-B (SBGL / GIG)
Tue 11:56:06 AM -22.1961 -42.9010 245° Southwest 464 534 28,000  Level FlightAware ADS-B (SBGL / GIG)
Tue 11:56:16 AM -22.2053 -42.9217 246° West 462 532 28,000  Level FlightAware ADS-B (SBGL / GIG)
Tue 11:56:47 AM -22.2325 -42.9854 246° West 463 533 28,000  Level FlightAware ADS-B (SBGL / GIG)
Tue 11:57:18 AM -22.2601 -43.0499 246° West 462 532 28,000  Level FlightAware ADS-B (SBGL / GIG)
Tue 11:57:26 AM -22.2685 -43.0687 245° Southwest 463 533 28,000  Level FlightAware ADS-B (SBGL / GIG)
Tue 11:57:47 AM -22.2859 -43.1100 246° West 462 532 28,000  Level FlightAware ADS-B (SBGL / GIG)
Tue 11:58:05 AM -22.3029 -43.1488 245° Southwest 463 533 28,000  Level FlightAware ADS-B (SBGL / GIG)
Tue 11:58:16 AM -22.3132 -43.1733 246° West 462 532 28,000  Level FlightAware ADS-B (SBGL / GIG)
Tue 11:58:47 AM -22.3390 -43.2341 246° West 463 533 28,000  Level FlightAware ADS-B (SBGL / GIG)
Tue 11:59:15 AM -22.3653 -43.2950 246° West 462 532 28,000  Level FlightAware ADS-B (SBGL / GIG)
Tue 11:59:22 AM -22.3722 -43.3117 245° Southwest 463 533 28,000  Level FlightAware ADS-B (SBGL / GIG)
Tue 11:59:47 AM -22.3940 -43.3631 246° West 464 534 28,000  Level FlightAware ADS-B (SBGL / GIG)
Tue 11:59:57 AM -22.4033 -43.3848 245° Southwest 463 533 28,000  Level FlightAware ADS-B (SBGL / GIG)
Tue 12:00:17 PM -22.4215 -43.4270 246° West 464 534 28,000  Level FlightAware ADS-B (SBGL / GIG)
Tue 12:00:46 PM -22.4475 -43.4879 246° West 464 534 28,000  Level FlightAware ADS-B (SBGL / GIG)
Tue 12:01:17 PM -22.4741 -43.5511 246° West 464 534 28,000  Level FlightAware ADS-B (SBGL / GIG)
Tue 12:01:47 PM -22.5016 -43.6160 246° West 465 535 28,000  Level FlightAware ADS-B (SBGL / GIG)
Tue 12:02:17 PM -22.5287 -43.6789 246° West 466 536 28,000  Level FlightAware ADS-B (SBGL / GIG)
Tue 12:02:18 PM -22.5178 -43.6541 245° Southwest 466 536 28,000  Level FlightAware ADS-B (SBRJ / SDU)
Tue 12:02:47 PM -22.5563 -43.7446 246° West 467 537 28,000  Level FlightAware ADS-B (SBGL / GIG)
Tue 12:02:50 PM -22.5481 -43.7251 246° West 467 537 28,000  Level FlightAware ADS-B (SBRJ / SDU)
Tue 12:03:17 PM -22.5827 -43.8071 246° West 468 539 28,000  Level FlightAware ADS-B (SBGL / GIG)
Tue 12:03:34 PM -22.5948 -43.8360 245° Southwest 468 539 28,000  Level FlightAware ADS-B (SBGL / GIG)
Tue 12:03:47 PM -22.6093 -43.8700 246° West 468 539 28,000  Level FlightAware ADS-B (SBGL / GIG)
Tue 12:04:17 PM -22.6369 -43.9361 246° West 469 540 28,000  Level FlightAware ADS-B (SBGL / GIG)
Tue 12:04:23 PM -22.6261 -43.9104 246° West 469 540 28,000  Level FlightAware ADS-B (SBRJ / SDU)
Tue 12:04:47 PM -22.6633 -43.9987 246° West 469 540 28,000  Level FlightAware ADS-B (SBGL / GIG)
Tue 12:05:08 PM -22.6691 -44.0122 246° West 470 541 28,000  Level FlightAware ADS-B (SBRJ / SDU)
Tue 12:05:16 PM -22.6896 -44.0614 246° West 469 540 28,000  Level FlightAware ADS-B (SBGL / GIG)
Tue 12:05:48 PM -22.7019 -44.0907 246° West 470 541 28,000  Level FlightAware ADS-B (SBRJ / SDU)
Tue 12:06:07 PM -22.7361 -44.1708 244° Southwest 471 542 28,000  Level FlightAware ADS-B (SBGL / GIG)
Tue 12:06:17 PM -22.7454 -44.1901 242° Southwest 469 540 28,000  Level FlightAware ADS-B (SBGL / GIG)
Tue 12:06:47 PM -22.7798 -44.2509 236° Southwest 470 541 28,000  Level FlightAware ADS-B (SBGL / GIG)
Tue 12:06:48 PM -22.7815 -44.2532 236° Southwest 466 536 28,000  Level FlightAware ADS-B (SBGL / GIG)
Tue 12:07:14 PM -22.7931 -44.2704 235° Southwest 470 541 28,000  Level FlightAware ADS-B (SBGL / GIG)
Tue 12:08:37 PM -22.9254 -44.4566 233° Southwest 468 539 28,000  Level FlightAware ADS-B (SBGL / GIG)
Tue 12:08:49 PM -22.9416 -44.4795 234° Southwest 462 532 28,000  Level FlightAware ADS-B (SBGL / GIG)
Tue 12:09:13 PM -22.9588 -44.5088 242° Southwest 468 539 28,000  Level FlightAware ADS-B (SBGL / GIG)
Tue 12:09:39 PM -22.9825 -44.5840 260° West 467 537 28,000  Level FlightAware ADS-B (SBGL / GIG)
Tue 12:10:50 PM -22.9967 -44.7464 266° West 465 535 28,000  Level FlightAware ADS-B (SDAM)
Tue 12:11:18 PM -23.0007 -44.8027 266° West 466 536 28,000  Level FlightAware ADS-B (SDAM)
Tue 12:11:50 PM -23.0066 -44.8919 266° West 466 536 28,000  Level FlightAware ADS-B (SDAM)
Tue 12:12:21 PM -23.0108 -44.9585 266° West 466 536 28,000  Level FlightAware ADS-B (SDAM)
Tue 12:12:51 PM -23.0158 -45.0326 266° West 466 536 28,000 -1,200 Level FlightAware ADS-B (SDAM)
Tue 12:15:21 PM -23.0364 -45.3556 267° West 409 471 24,400 -1,500 Descending FlightAware ADS-B (SDAM)
Tue 12:15:51 PM -23.0402 -45.4164 267° West 405 466 23,500 -1,900 Descending FlightAware ADS-B (SDAM)
Tue 12:16:21 PM -23.0435 -45.4741 267° West 401 461 22,500 -1,862 Descending FlightAware ADS-B (SDAM)
Tue 12:16:49 PM -23.0480 -45.5201 255° West 399 459 21,700 -1,831 Descending FlightAware ADS-B
Tue 12:17:20 PM -23.0685 -45.5899 252° West 394 453 20,700 -1,869 Descending FlightAware ADS-B
Tue 12:17:50 PM -23.0859 -45.6466 252° West 390 449 19,800 -1,770 Descending FlightAware ADS-B
Tue 12:18:21 PM -23.1023 -45.7016 252° West 386 444 18,900 -1,800 Descending FlightAware ADS-B
Tue 12:18:50 PM -23.1183 -45.7543 252° West 382 440 18,000 -1,627 Descending FlightAware ADS-B
Tue 12:19:20 PM -23.1344 -45.8070 252° West 371 427 17,300 -1,500 Descending FlightAware ADS-B
Tue 12:19:50 PM -23.1515 -45.8636 252° West 360 414 16,500 -1,500 Descending FlightAware ADS-B
Tue 12:20:20 PM -23.1667 -45.9139 253° West 359 413 15,800 -1,377 Descending FlightAware ADS-B
Tue 12:20:51 PM -23.1820 -45.9654 253° West 348 400 15,100 -1,400 Descending FlightAware ADS-B
Tue 12:21:20 PM -23.1968 -46.0142 252° West 348 400 14,400 -1,525 Descending FlightAware ADS-B
Tue 12:21:50 PM -23.2120 -46.0652 253° West 351 404 13,600 -1,400 Descending FlightAware ADS-B
Tue 12:22:20 PM -23.2268 -46.1141 252° West 349 402 13,000 -1,300 Descending FlightAware ADS-B
Tue 12:22:50 PM -23.2419 -46.1644 253° West 338 389 12,300 -1,400 Descending FlightAware ADS-B
Tue 12:23:20 PM -23.2552 -46.2098 253° West 337 388 11,600 -1,500 Descending FlightAware ADS-B
Tue 12:23:50 PM -23.2708 -46.2615 253° West 333 383 10,800 -1,600 Descending FlightAware ADS-B
Tue 12:24:20 PM -23.2850 -46.3089 253° West 330 380 10,000 -1,333 Descending FlightAware ADS-B
Tue 12:24:35 PM -23.2915 -46.3314 253° West 320 368 9,800 -600 Descending FlightAware ADS-B
Tue 12:24:50 PM -23.2986 -46.3551 253° West 305 351 9,700 -182 Descending FlightAware ADS-B
Tue 12:25:08 PM -23.3059 -46.3799 253° West 285 328 9,700  Level FlightAware ADS-B (SDAM)
Tue 12:25:30 PM -23.3145 -46.4092 253° West 265 305 9,700  Level FlightAware ADS-B
Tue 12:25:50 PM -23.3220 -46.4339 253° West 248 285 9,700  Level FlightAware ADS-B
Tue 12:26:08 PM -23.3282 -46.4550 253° West 245 282 9,700  Level FlightAware ADS-B (SDAM)
Tue 12:26:30 PM -23.3357 -46.4805 253° West 244 281 9,700  Level FlightAware ADS-B
Tue 12:26:31 PM -23.2314 -46.1298 252° West 245 282 9,700 -300 Level FlightAware ADS-B
Tue 12:26:50 PM -23.3427 -46.5044 253° West 247 284 9,600 -706 Descending FlightAware ADS-B
Tue 12:27:05 PM -23.3479 -46.5222 253° West 247 284 9,300 -1,200 Descending FlightAware ADS-B
Tue 12:27:20 PM -23.3531 -46.5397 253° West 246 283 9,000 -800 Descending FlightAware ADS-B
Tue 12:27:35 PM -23.3583 -46.5575 253° West 239 275 8,900 -774 Descending FlightAware ADS-B
Tue 12:27:51 PM -23.3634 -46.5748 253° West 237 273 8,600 -882 Descending FlightAware ADS-B
Tue 12:28:09 PM -23.3691 -46.5940 253° West 228 262 8,400 -632 Descending FlightAware ADS-B (SDAM)
Tue 12:28:10 PM -23.3693 -46.5950 252° West 230 265 8,400 -1,125 Level FlightAware ADS-B
Tue 12:28:25 PM -23.3749 -46.6133 253° West 228 262 8,100 -1,200 Descending FlightAware ADS-B
Tue 12:28:30 PM -23.3761 -46.6174 252° West 228 262 8,000 -750 Descending FlightAware ADS-B
Tue 12:28:41 PM -23.3798 -46.6298 253° West 225 259 7,900 -923 Descending FlightAware ADS-B
Tue 12:28:56 PM -23.3843 -46.6460 253° West 221 254 7,600 -1,125 Descending FlightAware ADS-B
Tue 12:28:57 PM -23.3834 -46.6422 252° West 221 254 7,600 -1,286 Level FlightAware ADS-B
Tue 12:29:10 PM -23.3889 -46.6611 252° West 221 254 7,300 -1,263 Descending FlightAware ADS-B
Tue 12:29:16 PM -23.3911 -46.6671 246° West 222 255 7,200 -600 Descending FlightAware ADS-B
Tue 12:29:20 PM -23.3931 -46.6710 236° Southwest 223 257 7,200 -667 Level FlightAware ADS-B
Tue 12:29:25 PM -23.3971 -46.6755 225° Southwest 224 258 7,100 -1,200 Descending FlightAware ADS-B
Tue 12:29:30 PM -23.4011 -46.6791 213° Southwest 224 258 7,000 -1,200 Descending FlightAware ADS-B
Tue 12:29:35 PM -23.4054 -46.6815 203° Southwest 222 255 6,900 -667 Descending FlightAware ADS-B
Tue 12:29:39 PM -23.4088 -46.6827 196° South 222 255 6,900 750 Level FlightAware ADS-B (SDAM)
Tue 12:29:43 PM -23.4137 -46.6834 183° South 217 250 7,000  Climbing FlightAware ADS-B (SDAM)
Tue 12:29:51 PM -23.4171 -46.6831 172° South 211 243 6,900 -1,000 Descending FlightAware ADS-B
Tue 12:29:55 PM -23.4250 -46.6814 164° South 210 242 6,800 -750 Descending FlightAware ADS-B
Tue 12:29:59 PM -23.4274 -46.6809 163° South 211 243 6,800 -1,125 Level FlightAware ADS-B
Tue 12:30:11 PM -23.4398 -46.6768 163° South 211 243 6,500 -1,714 Descending FlightAware ADS-B
Tue 12:30:20 PM -23.4482 -46.6740 164° South 214 246 6,200 -2,000 Descending FlightAware ADS-B
Tue 12:30:26 PM -23.4538 -46.6724 164° South 217 250 6,000 -1,579 Descending FlightAware ADS-B
Tue 12:30:39 PM -23.4671 -46.6678 157° South 222 255 5,700 -1,500 Descending FlightAware ADS-B (SDAM)
Tue 12:30:50 PM -23.4756 -46.6602 125° Southeast 225 259 5,400 -1,412 Descending FlightAware ADS-B
Tue 12:30:56 PM -23.4784 -46.6547 111° Southeast 225 259 5,300 -1,800 Descending FlightAware ADS-B
Tue 12:31:00 PM -23.4796 -46.6492 97° East 224 258 5,100 -2,000 Descending FlightAware ADS-B
Tue 12:31:05 PM -23.4795 -46.6439 86° East 224 258 5,000 -1,200 Descending FlightAware ADS-B
Tue 12:31:15 PM -23.4776 -46.6326 76° East 220 253 4,800 -1,200 Descending FlightAware ADS-B
Tue 12:31:20 PM -23.4768 -46.6287 75° East 219 252 4,700 -1,200 Descending FlightAware ADS-B
Tue 12:31:30 PM -23.4738 -46.6168 74° East 207 238 4,500 -900 Descending FlightAware ADS-B
Tue 12:31:40 PM -23.4715 -46.6079 74° East 202 232 4,400 -750 Descending FlightAware ADS-B
Tue 12:31:46 PM -23.4701 -46.6026 74° East 197 227 4,300 -947 Descending FlightAware ADS-B
Tue 12:31:59 PM -23.4670 -46.5914 74° East 186 214 4,100 -1,286 Descending FlightAware ADS-B
Tue 12:32:00 PM -23.4665 -46.5888 73° East 185 213 4,000 -1,125 Descending FlightAware ADS-B
Tue 12:32:15 PM -23.4627 -46.5756 73° East 176 203 3,800 -900 Descending FlightAware ADS-B
Tue 12:32:20 PM -23.4617 -46.5723 74° East 176 203 3,700 -1,200 Descending FlightAware ADS-B
Tue 12:32:30 PM -23.4593 -46.5631 73° East 168 193 3,500 -1,125 Descending FlightAware ADS-B
Tue 12:32:36 PM -23.4585 -46.5598 74° East 167 192 3,400 -800 Descending FlightAware ADS-B
Tue 12:32:45 PM -23.4559 -46.5513 73° East 159 183 3,300 -750 Descending FlightAware ADS-B
Tue 12:33:00 PM -23.4534 -46.5409 74° East 150 173 3,100 -750 Descending FlightAware ADS-B
Tue 12:33:01 PM -23.4532 -46.5403 74° East 149 171 3,100 -400 Level FlightAware ADS-B
Tue 12:33:15 PM -23.4508 -46.5311 73° East 144 166 3,000 -375 Descending FlightAware ADS-B
Tue 12:33:17 PM -23.4507 -46.5308 73° East 144 166 3,000 -800 Level FlightAware ADS-B
Tue 12:33:30 PM -23.4475 -46.5194 73° East 144 166 2,800 -857 Descending FlightAware ADS-B
Tue 12:33:45 PM -23.4448 -46.5092 74° East 142 163 2,600 -800 Descending FlightAware ADS-B
Tue 12:36:00 PM -23.4321 -46.4695 71° East  Level Estimated
Tue 12:37:00 PM -23.4321 -46.4695 North  Level Estimated
Tue 12:38:00 PM -23.4321 -46.4695 North  Level Estimated
Tue 12:39:00 PM -23.4321 -46.4695 North  Level Estimated
Tue 12:40:00 PM -23.4321 -46.4695 North  Level Estimated
Tue 12:41:00 PM -23.4321 -46.4695 North  Level Estimated
Tue 12:42:00 PM -23.4321 -46.4695 North  Level Estimated
Tue 12:43:00 PM -23.4321 -46.4695 North  Level Estimated
Tue 12:44:00 PM -23.4321 -46.4695 North  Level Estimated
Tue 12:45:00 PM -23.4321 -46.4695 North  Level Estimated
Tue 12:46:00 PM -23.4321 -46.4695 North  Level Estimated
Tue 12:47:00 PM -23.4321 -46.4695 North  Level Estimated
Tue 12:48:00 PM -23.4321 -46.4695 North  Level Estimated
Tue 12:49:00 PM -23.4321 -46.4695 North  Level Estimated
Tue 12:50:00 PM -23.4321 -46.4695 North  Level Estimated
Tue 12:51:00 PM -23.4321 -46.4695 North  Level Estimated
Tue 12:52:00 PM -23.4321 -46.4695 North  Level Estimated
Tue 12:53:00 PM -23.4321 -46.4695 North  Level Estimated
Tue 12:54:00 PM -23.4321 -46.4695 North  Level Estimated
Tue 12:55:00 PM -23.4321 -46.4695 North  Level Estimated
Tue 12:56:00 PM -23.4321 -46.4695 North  Level Estimated
Tue 12:57:00 PM -23.4321 -46.4695 North  Level Estimated

Login

Don't have an account? Register now (free) for customized features, flight alerts, and more!